Time;durP1;ratioP1;P1;durP2;ratioP2;P2;SDS_P1;SDS_P2;PMS_P1;PMS_P2;Temp;Humidity;BMP_temperature;BMP_pressure;BME280_temperature;BME280_humidity;BME280_pressure;Samples;Min_cycle;Max_cycle;Signal;HPM_P1;HPM_P2
2023/04/10 00:00:55;;;;;;;40.07;25.97;;;;;;;7.51;100.00;102605.03;5045832;28;20280;-68
2023/04/10 00:03:22;;;;;;;38.30;24.37;;;;;;;7.56;100.00;102609.59;5044996;28;20814;-68
2023/04/10 00:05:48;;;;;;;41.60;26.83;;;;;;;7.50;100.00;102615.97;5028918;28;20220;-68
2023/04/10 00:08:13;;;;;;;39.13;25.10;;;;;;;7.52;100.00;102606.78;5046093;28;20194;-68
2023/04/10 00:10:39;;;;;;;37.70;24.57;;;;;;;7.45;100.00;102618.25;5048092;28;20197;-68
2023/04/10 00:13:04;;;;;;;40.23;26.20;;;;;;;7.41;100.00;102613.78;5042483;28;20671;-67
2023/04/10 00:15:30;;;;;;;39.30;24.70;;;;;;;7.44;100.00;102613.06;5029142;28;20255;-68
2023/04/10 00:17:55;;;;;;;37.17;24.07;;;;;;;7.39;100.00;102614.47;5043781;28;20300;-68
2023/04/10 00:20:21;;;;;;;36.37;24.63;;;;;;;7.39;100.00;102605.16;5043654;28;20292;-67
2023/04/10 00:22:47;;;;;;;38.53;24.83;;;;;;;7.40;100.00;102599.28;5047763;28;20277;-68
2023/04/10 00:25:13;;;;;;;38.97;24.97;;;;;;;7.35;100.00;102599.78;5047060;28;20650;-68
2023/04/10 00:27:38;;;;;;;36.17;24.57;;;;;;;7.34;100.00;102591.28;5046754;28;20201;-67
2023/04/10 00:30:04;;;;;;;36.87;24.63;;;;;;;7.28;100.00;102590.88;5026495;28;20198;-68
2023/04/10 00:32:30;;;;;;;37.97;25.20;;;;;;;7.25;100.00;102582.19;5042154;28;20239;-68
2023/04/10 00:34:55;;;;;;;39.87;25.17;;;;;;;7.31;100.00;102580.00;5027019;28;20201;-67
2023/04/10 00:37:20;;;;;;;36.57;22.97;;;;;;;7.25;100.00;102577.97;5048658;28;20204;-67
2023/04/10 00:39:46;;;;;;;38.50;25.03;;;;;;;7.13;100.00;102586.50;5032907;28;20304;-68
2023/04/10 00:42:11;;;;;;;41.37;26.77;;;;;;;7.22;100.00;102585.44;5049238;28;20201;-67
2023/04/10 00:44:37;;;;;;;36.67;24.33;;;;;;;7.18;100.00;102583.47;5033089;28;20201;-68
2023/04/10 00:47:06;;;;;;;39.20;25.00;;;;;;;7.08;100.00;102582.81;5028106;28;20236;-67
2023/04/10 00:49:33;;;;;;;36.63;24.00;;;;;;;7.02;100.00;102583.34;5045298;28;20212;-67
2023/04/10 00:51:59;;;;;;;36.30;24.03;;;;;;;7.07;100.00;102574.31;5047937;28;20961;-69
2023/04/10 00:54:25;;;;;;;37.00;23.90;;;;;;;7.01;100.00;102571.38;5032692;28;20289;-67
2023/04/10 00:56:51;;;;;;;39.47;24.77;;;;;;;7.06;100.00;102576.75;5033030;28;20218;-67
2023/04/10 00:59:17;;;;;;;40.87;24.67;;;;;;;7.05;100.00;102573.31;5028777;28;20619;-67
2023/04/10 01:01:43;;;;;;;41.80;24.80;;;;;;;7.05;100.00;102580.09;5040722;28;20255;-67
2023/04/10 01:04:09;;;;;;;38.63;24.53;;;;;;;7.05;100.00;102585.19;5016042;28;20281;-69
2023/04/10 01:06:46;;;;;;;38.47;25.33;;;;;;;7.00;100.00;102584.03;5047597;28;20213;-67
2023/04/10 01:09:32;;;;;;;37.27;25.77;;;;;;;6.96;100.00;102582.09;5044044;28;20280;-67
2023/04/10 01:12:14;;;;;;;40.43;25.27;;;;;;;6.98;100.00;102580.50;5032956;28;20596;-67
2023/04/10 01:15:16;;;;;;;40.93;24.83;;;;;;;6.94;100.00;102584.53;5029915;28;20279;-67
2023/04/10 01:17:50;;;;;;;38.67;24.13;;;;;;;6.87;100.00;102574.75;4997759;28;20210;-69
2023/04/10 01:20:23;;;;;;;36.87;23.77;;;;;;;6.87;100.00;102574.75;5044624;28;20221;-68
2023/04/10 01:23:20;;;;;;;37.00;23.77;;;;;;;6.85;100.00;102580.53;5030428;28;20537;-68
2023/04/10 01:26:11;;;;;;;41.53;25.50;;;;;;;6.82;100.00;102580.34;5042770;28;20224;-68
2023/04/10 01:28:52;;;;;;;39.43;24.37;;;;;;;6.87;100.00;102579.81;5045956;28;20276;-68
2023/04/10 01:31:24;;;;;;;40.37;24.90;;;;;;;6.79;100.00;102581.03;5027063;28;20206;-68
2023/04/10 01:33:54;;;;;;;41.97;26.30;;;;;;;6.82;100.00;102575.25;5045742;28;20233;-68
2023/04/10 01:36:27;;;;;;;37.40;24.60;;;;;;;6.80;100.00;102571.72;5031228;28;20216;-68
2023/04/10 01:38:55;;;;;;;37.23;24.37;;;;;;;6.79;100.00;102569.97;5031344;28;20221;-68
2023/04/10 01:41:22;;;;;;;36.97;24.17;;;;;;;6.82;100.00;102572.72;5047319;28;20603;-68
2023/04/10 01:43:50;;;;;;;41.13;24.60;;;;;;;6.77;100.00;102574.09;5017593;28;20658;-68
2023/04/10 01:46:18;;;;;;;40.30;25.20;;;;;;;6.70;100.00;102569.41;5025381;28;20226;-68
2023/04/10 01:48:46;;;;;;;38.27;24.53;;;;;;;6.71;100.00;102566.94;5032133;28;20212;-68
2023/04/10 01:51:12;;;;;;;39.23;24.83;;;;;;;6.70;100.00;102562.66;5025912;28;20201;-68
2023/04/10 01:53:39;;;;;;;41.27;25.47;;;;;;;6.64;100.00;102562.25;5015189;28;20668;-68
2023/04/10 01:56:07;;;;;;;40.47;25.70;;;;;;;6.61;100.00;102559.53;5031970;28;20217;-68
2023/04/10 01:58:39;;;;;;;41.87;25.80;;;;;;;6.61;100.00;102562.06;5028629;28;20225;-68
2023/04/10 02:01:05;;;;;;;42.27;26.67;;;;;;;6.55;100.00;102553.19;5026322;28;20255;-68
2023/04/10 02:03:31;;;;;;;39.37;24.87;;;;;;;6.52;100.00;102548.78;5024715;28;20216;-68
2023/04/10 02:06:26;;;;;;;39.80;25.53;;;;;;;6.47;100.00;102552.69;5042833;28;20302;-68
2023/04/10 02:09:03;;;;;;;38.73;25.40;;;;;;;6.51;100.00;102541.94;5022234;28;20189;-69
2023/04/10 02:11:28;;;;;;;43.50;25.53;;;;;;;6.49;100.00;102540.94;5047223;28;20215;-68
2023/04/10 02:13:58;;;;;;;40.13;25.77;;;;;;;6.47;100.00;102537.44;5031770;28;20224;-68
2023/04/10 02:16:24;;;;;;;41.57;25.67;;;;;;;6.52;100.00;102532.63;5042118;28;20868;-67
2023/04/10 02:18:51;;;;;;;43.97;25.80;;;;;;;6.47;100.00;102534.00;5030317;28;20300;-67
2023/04/10 02:21:17;;;;;;;44.33;26.50;;;;;;;6.49;100.00;102528.22;5026083;28;20198;-67
2023/04/10 02:23:42;;;;;;;42.50;25.50;;;;;;;6.48;100.00;102517.94;5029739;28;20671;-67
2023/04/10 02:26:08;;;;;;;39.03;25.73;;;;;;;6.47;100.00;102521.28;5016936;28;20213;-67
2023/04/10 02:28:37;;;;;;;42.67;27.30;;;;;;;6.51;100.00;102516.50;5025379;28;20209;-67
2023/04/10 02:31:06;;;;;;;44.23;27.97;;;;;;;6.49;100.00;102512.09;5027412;28;20205;-69
2023/04/10 02:33:31;;;;;;;43.37;26.87;;;;;;;6.50;100.00;102507.06;5025975;28;20278;-68
2023/04/10 02:35:58;;;;;;;44.53;25.97;;;;;;;6.47;100.00;102513.66;5039798;28;20304;-68
2023/04/10 02:38:24;;;;;;;41.93;26.00;;;;;;;6.48;100.00;102501.03;5027194;28;20224;-68
2023/04/10 02:40:50;;;;;;;43.97;26.60;;;;;;;6.48;100.00;102508.66;5014627;28;20201;-68
2023/04/10 02:43:16;;;;;;;45.43;27.53;;;;;;;6.48;100.00;102508.66;5026840;28;20288;-68
2023/04/10 02:45:42;;;;;;;42.13;25.43;;;;;;;6.44;100.00;102514.34;5017323;28;20363;-68
2023/04/10 02:48:10;;;;;;;43.00;26.07;;;;;;;6.45;100.00;102499.97;5022920;28;20948;-68
2023/04/10 02:50:36;;;;;;;45.47;27.47;;;;;;;6.47;100.00;102504.38;5040660;28;20315;-68
2023/04/10 02:53:01;;;;;;;44.70;25.77;;;;;;;6.44;100.00;102509.25;5027087;28;20197;-68
2023/04/10 02:55:27;;;;;;;42.40;26.20;;;;;;;6.43;100.00;102499.88;5027411;28;20209;-67
2023/04/10 02:57:52;;;;;;;44.07;27.50;;;;;;;6.42;100.00;102500.66;5031474;28;20201;-68
2023/04/10 03:00:20;;;;;;;44.03;26.57;;;;;;;6.38;100.00;102506.34;5042169;28;20185;-68
2023/04/10 03:03:04;;;;;;;39.60;25.27;;;;;;;6.37;100.00;102507.13;5018885;28;20201;-69
2023/04/10 03:05:37;;;;;;;43.33;26.87;;;;;;;6.38;100.00;102502.91;5023385;28;20284;-68
2023/04/10 03:08:03;;;;;;;46.43;27.00;;;;;;;6.35;100.00;102505.25;5027103;28;20852;-68
2023/04/10 03:10:29;;;;;;;41.00;26.07;;;;;;;6.33;100.00;102501.72;5028088;28;20198;-68
2023/04/10 03:12:54;;;;;;;41.83;26.87;;;;;;;6.32;100.00;102494.88;5030202;28;20197;-68
2023/04/10 03:15:20;;;;;;;43.63;27.50;;;;;;;6.30;100.00;102487.16;5023727;28;20210;-68
2023/04/10 03:17:46;;;;;;;43.80;26.73;;;;;;;6.30;100.00;102488.81;5031024;28;20817;-67
2023/04/10 03:20:12;;;;;;;38.33;25.23;;;;;;;6.28;100.00;102483.66;5022451;28;20194;-68
2023/04/10 03:22:38;;;;;;;42.30;25.97;;;;;;;6.25;100.00;102477.47;5021617;28;20201;-68
2023/04/10 03:25:05;;;;;;;39.07;23.77;;;;;;;6.24;100.00;102475.72;5030854;28;20224;-68
2023/04/10 03:27:33;;;;;;;42.87;26.67;;;;;;;6.21;100.00;102481.50;5043820;28;20269;-68
2023/04/10 03:29:59;;;;;;;39.63;24.90;;;;;;;6.22;100.00;102483.25;5030186;28;20190;-68
2023/04/10 03:32:27;;;;;;;40.93;26.00;;;;;;;6.16;100.00;102471.81;5039014;28;20226;-68
2023/04/10 03:34:53;;;;;;;43.43;26.63;;;;;;;6.14;100.00;102468.31;5022601;28;20263;-68
2023/04/10 03:37:18;;;;;;;45.03;27.23;;;;;;;6.10;100.00;102468.88;5022438;28;20236;-68
2023/04/10 03:39:44;;;;;;;43.37;26.73;;;;;;;6.10;100.00;102467.25;5029967;28;20220;-68
2023/04/10 03:42:12;;;;;;;39.70;26.00;;;;;;;6.07;100.00;102464.50;5029817;28;20265;-68
2023/04/10 03:44:38;;;;;;;39.60;25.23;;;;;;;6.06;100.00;102462.75;5025317;28;20561;-69
2023/04/10 03:47:04;;;;;;;39.63;25.27;;;;;;;6.07;100.00;102469.56;5023727;28;20221;-69
2023/04/10 03:49:29;;;;;;;40.00;25.10;;;;;;;6.04;100.00;102455.81;5025123;28;20254;-69
2023/04/10 03:52:01;;;;;;;39.60;26.13;;;;;;;5.95;100.00;102453.53;5020016;28;20686;-68
2023/04/10 03:54:27;;;;;;;42.00;26.07;;;;;;;5.93;100.00;102455.09;5027376;28;20197;-68
2023/04/10 03:56:53;;;;;;;43.10;24.77;;;;;;;5.95;100.00;102445.91;5030026;28;20217;-68
2023/04/10 03:59:20;;;;;;;40.03;24.80;;;;;;;5.99;100.00;102449.53;5020209;28;20901;-68
2023/04/10 04:01:45;;;;;;;40.60;25.67;;;;;;;5.97;100.00;102441.81;5030474;28;20288;-68
2023/04/10 04:04:11;;;;;;;39.03;24.40;;;;;;;5.89;100.00;102439.59;5031993;28;20293;-68
2023/04/10 04:07:12;;;;;;;41.77;25.43;;;;;;;5.85;100.00;102450.34;5026525;28;20193;-68
2023/04/10 04:09:51;;;;;;;40.83;26.13;;;;;;;5.86;100.00;102455.53;5025442;28;20936;-68
2023/04/10 04:12:35;;;;;;;41.20;25.23;;;;;;;5.81;100.00;102448.38;5049127;28;20208;-68
2023/04/10 04:15:04;;;;;;;38.80;24.47;;;;;;;5.83;100.00;102452.78;5049668;28;20284;-68
2023/04/10 04:17:49;;;;;;;41.57;24.93;;;;;;;5.83;100.00;102451.88;5028115;28;20779;-69
2023/04/10 04:20:47;;;;;;;41.40;24.70;;;;;;;5.79;100.00;102448.25;5016572;28;20201;-68
2023/04/10 04:23:47;;;;;;;45.60;25.17;;;;;;;5.71;100.00;102451.94;5050143;28;20206;-68
2023/04/10 04:26:29;;;;;;;39.83;26.00;;;;;;;5.75;100.00;102448.81;5030101;28;20268;-68
2023/04/10 04:29:10;;;;;;;46.63;25.23;;;;;;;5.75;100.00;102440.34;5029770;28;20213;-68
2023/04/10 04:31:56;;;;;;;43.43;27.00;;;;;;;5.75;100.00;102446.28;5042512;28;20205;-68
2023/04/10 04:34:37;;;;;;;42.77;25.87;;;;;;;5.73;100.00;102449.50;5026438;28;20201;-68
2023/04/10 04:37:12;;;;;;;41.90;25.53;;;;;;;5.70;100.00;102449.28;5023818;28;20201;-68
2023/04/10 04:40:00;;;;;;;44.30;26.00;;;;;;;5.71;100.00;102446.00;5030942;28;20261;-68
2023/04/10 04:42:55;;;;;;;46.00;26.77;;;;;;;5.71;100.00;102451.94;5028526;28;20273;-68
2023/04/10 04:45:36;;;;;;;42.67;26.37;;;;;;;5.68;100.00;102448.31;5029897;28;20221;-68
2023/04/10 04:48:15;;;;;;;42.93;25.63;;;;;;;5.69;100.00;102452.63;5025463;28;20695;-68
2023/04/10 04:50:53;;;;;;;40.20;25.20;;;;;;;5.67;100.00;102452.53;5022886;28;20539;-67
2023/04/10 04:53:44;;;;;;;38.80;24.47;;;;;;;5.69;100.00;102450.97;5029271;28;20220;-68
2023/04/10 04:56:27;;;;;;;41.53;25.13;;;;;;;5.68;100.00;102446.69;5029902;28;20573;-68
2023/04/10 04:59:22;;;;;;;39.07;25.03;;;;;;;5.66;100.00;102445.69;5005299;28;20317;-69
2023/04/10 05:01:54;;;;;;;40.33;25.43;;;;;;;5.67;100.00;102456.75;5012820;28;20277;-68
2023/04/10 05:04:49;;;;;;;39.73;24.60;;;;;;;5.68;100.00;102456.84;4989910;28;20200;-68
2023/04/10 05:07:22;;;;;;;41.17;26.20;;;;;;;5.65;100.00;102458.28;5014537;28;20182;-68
2023/04/10 05:10:07;;;;;;;41.33;24.83;;;;;;;5.65;100.00;102460.81;5048777;28;20224;-68
2023/04/10 05:13:07;;;;;;;38.73;24.27;;;;;;;5.71;100.00;102453.63;5027285;28;20194;-68
2023/04/10 05:15:45;;;;;;;41.50;25.07;;;;;;;5.79;100.00;102454.97;5040100;28;20686;-68
2023/04/10 05:18:30;;;;;;;38.77;24.43;;;;;;;5.83;100.00;102452.78;5039255;28;20225;-67
2023/04/10 05:21:17;;;;;;;40.40;24.87;;;;;;;5.87;100.00;102459.81;5039932;28;20202;-67
2023/04/10 05:24:19;;;;;;;37.40;23.83;;;;;;;5.97;100.00;102467.25;4965224;28;20196;-68
2023/04/10 05:27:02;;;;;;;38.50;24.10;;;;;;;5.94;100.00;102466.16;5039040;28;20647;-68
2023/04/10 05:29:40;;;;;;;39.17;24.87;;;;;;;6.05;100.00;102460.09;5017345;28;20196;-68
2023/04/10 05:32:12;;;;;;;40.37;24.83;;;;;;;6.11;100.00;102455.38;5026664;28;20193;-68
2023/04/10 05:34:58;;;;;;;40.60;25.20;;;;;;;6.16;100.00;102459.09;5039776;28;20558;-68
2023/04/10 05:37:39;;;;;;;39.57;24.33;;;;;;;6.35;100.00;102455.25;5045173;28;20190;-68
2023/04/10 05:40:43;;;;;;;38.13;24.43;;;;;;;6.45;100.00;102461.81;5036224;28;20584;-68
2023/04/10 05:43:26;;;;;;;37.50;23.57;;;;;;;6.50;100.00;102447.69;5039773;28;20285;-67
2023/04/10 05:45:59;;;;;;;42.13;25.37;;;;;;;6.48;100.00;102454.34;5031835;28;20293;-67
2023/04/10 05:48:47;;;;;;;37.20;23.63;;;;;;;6.62;100.00;102446.78;5039830;28;20225;-69
2023/04/10 05:51:49;;;;;;;41.30;25.70;;;;;;;6.74;100.00;102442.44;4988800;28;20195;-67
2023/04/10 05:54:33;;;;;;;38.37;23.73;;;;;;;6.83;100.00;102442.09;5042654;28;20257;-67
2023/04/10 05:57:08;;;;;;;38.90;24.37;;;;;;;6.96;100.00;102444.59;5043836;28;20221;-68
2023/04/10 05:59:56;;;;;;;43.87;25.87;;;;;;;7.06;100.00;102436.69;5041749;28;20233;-68
2023/04/10 06:02:40;;;;;;;36.67;23.60;;;;;;;7.25;100.00;102431.88;5047037;28;20277;-68
2023/04/10 06:05:10;;;;;;;36.97;24.43;;;;;;;7.38;100.00;102431.81;5023934;28;20205;-68
2023/04/10 06:07:36;;;;;;;36.70;23.50;;;;;;;7.49;100.00;102429.06;5022895;28;20198;-68
2023/04/10 06:10:02;;;;;;;37.87;24.63;;;;;;;7.63;100.00;102424.75;5032126;28;20193;-69
2023/04/10 06:12:32;;;;;;;40.77;24.57;;;;;;;7.73;100.00;102420.25;5024699;28;20616;-68
2023/04/10 06:14:59;;;;;;;35.40;23.80;;;;;;;7.85;100.00;102417.50;5024671;28;20644;-69
2023/04/10 06:17:27;;;;;;;35.53;23.37;;;;;;;7.89;100.00;102416.88;5021401;28;20508;-69
2023/04/10 06:19:53;;;;;;;35.60;24.13;;;;;;;8.01;100.00;102413.34;5025236;28;20299;-69
2023/04/10 06:22:18;;;;;;;35.73;24.13;;;;;;;8.08;100.00;102407.78;5037979;28;20260;-68
2023/04/10 06:24:44;;;;;;;36.63;23.10;;;;;;;8.05;100.00;102411.81;5030003;28;20258;-69
2023/04/10 06:27:11;;;;;;;34.50;23.73;;;;;;;7.97;100.00;102408.00;5028584;28;20209;-69
2023/04/10 06:29:36;;;;;;;34.70;23.40;;;;;;;7.96;100.00;102407.09;5026340;28;20201;-69
2023/04/10 06:32:02;;;;;;;37.07;25.13;;;;;;;8.04;100.00;102405.84;5026892;28;20194;-68
2023/04/10 06:34:32;;;;;;;34.00;24.17;;;;;;;8.18;100.00;102397.28;5024633;28;20277;-68
2023/04/10 06:37:02;;;;;;;33.80;23.47;;;;;;;8.37;100.00;102401.69;5025257;28;20214;-68
2023/04/10 06:39:27;;;;;;;34.23;22.83;;;;;;;8.44;100.00;102396.13;5028290;28;20304;-68
2023/04/10 06:41:53;;;;;;;35.07;23.13;;;;;;;8.59;100.00;102389.28;5047651;28;20561;-70
2023/04/10 06:44:28;;;;;;;32.23;23.10;;;;;;;8.66;100.00;102388.81;5026435;28;20190;-71
2023/04/10 06:46:53;;;;;;;35.37;23.90;;;;;;;8.93;100.00;102380.88;5044158;28;20279;-70
2023/04/10 06:49:19;;;;;;;33.00;22.73;;;;;;;9.27;100.00;102378.31;5040615;28;20285;-70
2023/04/10 06:51:47;;;;;;;30.97;22.10;;;;;;;9.13;100.00;102375.06;5039454;28;20186;-71
2023/04/10 06:54:12;;;;;;;30.23;22.00;;;;;;;9.07;100.00;102382.44;5042159;28;20655;-66
2023/04/10 06:56:38;;;;;;;34.80;24.47;;;;;;;8.85;100.00;102376.19;5028387;28;20224;-68
2023/04/10 06:59:03;;;;;;;36.10;24.07;;;;;;;8.85;100.00;102382.16;5044994;28;20703;-68
2023/04/10 07:01:29;;;;;;;33.00;23.60;;;;;;;8.93;100.00;102380.88;5042973;28;20202;-68
2023/04/10 07:03:55;;;;;;;35.87;24.23;;;;;;;8.93;100.00;102379.97;5042515;28;20196;-68
2023/04/10 07:06:20;;;;;;;33.13;22.30;;;;;;;9.09;100.00;102372.28;5036847;28;20276;-68
2023/04/10 07:08:48;;;;;;;32.43;23.63;;;;;;;9.30;100.00;102370.81;5039256;28;20560;-68
2023/04/10 07:11:13;;;;;;;31.00;22.67;;;;;;;9.24;100.00;102368.81;5042019;28;20243;-68
2023/04/10 07:13:39;;;;;;;32.33;22.73;;;;;;;9.36;100.00;102371.09;5043617;28;20767;-68
2023/04/10 07:16:07;;;;;;;36.47;23.73;;;;;;;9.42;100.00;102364.59;5043022;28;20221;-69
2023/04/10 07:18:34;;;;;;;32.90;23.27;;;;;;;9.63;100.00;102367.31;5041370;28;20213;-68
2023/04/10 07:20:59;;;;;;;31.97;22.30;;;;;;;9.69;100.00;102373.59;5043224;28;20646;-68
2023/04/10 07:23:24;;;;;;;35.17;22.70;;;;;;;9.89;100.00;102369.38;5043306;28;20248;-68
2023/04/10 07:25:50;;;;;;;33.87;23.03;;;;;;;10.04;100.00;102362.44;5046117;28;20222;-68
2023/04/10 07:28:16;;;;;;;31.00;22.83;;;;;;;10.12;100.00;102361.13;5041570;28;20549;-68
2023/04/10 07:30:41;;;;;;;31.23;22.67;;;;;;;10.25;100.00;102363.44;5043319;28;20608;-68
2023/04/10 07:33:07;;;;;;;30.60;21.77;;;;;;;10.36;100.00;102363.09;5041568;28;20589;-67
2023/04/10 07:35:32;;;;;;;30.87;22.40;;;;;;;10.68;100.00;102339.78;5038805;28;20707;-69
2023/04/10 07:37:58;;;;;;;29.57;21.73;;;;;;;10.79;100.00;102342.78;5039105;28;20194;-66
2023/04/10 07:40:23;;;;;;;29.70;22.17;;;;;;;10.87;100.00;102333.75;5046164;28;20194;-68
2023/04/10 07:42:49;;;;;;;29.73;22.40;;;;;;;11.11;100.00;102325.38;5045198;28;20182;-69
2023/04/10 07:45:15;;;;;;;30.37;21.57;;;;;;;10.94;100.00;102322.94;5044148;28;20674;-68
2023/04/10 07:47:40;;;;;;;28.33;21.57;;;;;;;11.16;100.00;102328.13;5024224;28;20548;-68
2023/04/10 07:50:07;;;;;;;29.30;22.10;;;;;;;11.42;100.00;102330.94;5039894;28;20189;-68
2023/04/10 07:52:33;;;;;;;31.13;23.13;;;;;;;11.41;100.00;102315.47;5037486;28;20191;-68
2023/04/10 07:55:02;;;;;;;29.53;21.40;;;;;;;11.51;100.00;102295.38;5046511;28;20208;-68
2023/04/10 07:57:28;;;;;;;30.03;22.37;;;;;;;11.49;100.00;102307.28;5043822;28;20193;-68
2023/04/10 07:59:53;;;;;;;30.70;22.77;;;;;;;12.02;100.00;102296.47;5043961;28;20906;-68
2023/04/10 08:02:19;;;;;;;28.43;21.43;;;;;;;12.34;100.00;102260.00;5024722;28;20213;-69
2023/04/10 08:04:44;;;;;;;26.97;21.37;;;;;;;12.27;100.00;102266.63;5040639;28;20217;-68
2023/04/10 08:07:10;;;;;;;28.93;22.00;;;;;;;12.63;100.00;102259.31;5037477;28;20922;-69
2023/04/10 08:09:35;;;;;;;26.37;20.90;;;;;;;13.15;100.00;102210.47;5045342;28;20193;-69
2023/04/10 08:12:01;;;;;;;26.87;20.60;;;;;;;13.29;100.00;102161.19;5041862;28;20259;-69
2023/04/10 08:14:27;;;;;;;27.10;21.43;;;;;;;13.36;100.00;102188.84;5042512;28;20252;-68
2023/04/10 08:16:52;;;;;;;31.03;23.50;;;;;;;13.83;100.00;102160.19;5024502;28;20698;-69
2023/04/10 08:19:17;;;;;;;25.83;19.57;;;;;;;13.60;100.00;102035.13;5040342;28;20260;-69
2023/04/10 08:21:43;;;;;;;25.20;20.53;;;;;;;13.49;100.00;101943.88;5043018;28;20285;-69
2023/04/10 08:24:08;;;;;;;23.17;19.10;;;;;;;13.80;100.00;101940.34;5043193;28;20190;-69
2023/04/10 08:26:34;;;;;;;22.77;18.90;;;;;;;14.11;100.00;101881.88;5044234;28;20934;-69
2023/04/10 08:28:59;;;;;;;21.87;18.13;;;;;;;14.19;100.00;101882.03;5043932;28;20648;-69
2023/04/10 08:31:26;;;;;;;23.20;17.50;;;;;;;14.14;100.00;101814.94;5040350;28;20660;-70
2023/04/10 08:33:52;;;;;;;20.47;16.60;;;;;;;14.48;100.00;101752.09;5028300;28;20929;-69
2023/04/10 08:36:18;;;;;;;19.87;17.17;;;;;;;14.97;100.00;101716.00;5036857;28;20254;-69
2023/04/10 08:38:44;;;;;;;21.77;17.70;;;;;;;15.03;100.00;101713.50;5038644;28;20206;-70
2023/04/10 08:41:10;;;;;;;20.17;16.77;;;;;;;15.24;95.11;101633.84;5046205;28;20284;-69
2023/04/10 08:43:36;;;;;;;19.00;16.73;;;;;;;15.30;92.21;101595.19;5025468;28;20194;-69
2023/04/10 08:46:02;;;;;;;19.20;16.67;;;;;;;15.38;93.92;101601.34;5042599;28;20582;-68
2023/04/10 08:48:37;;;;;;;20.53;16.57;;;;;;;15.80;95.52;101607.00;5041650;28;20191;-69
2023/04/10 08:51:04;;;;;;;19.67;16.50;;;;;;;15.59;87.70;101542.22;5045474;28;20198;-69
2023/04/10 08:53:30;;;;;;;20.13;17.07;;;;;;;15.75;84.61;101534.63;5043679;28;20517;-69
2023/04/10 08:55:57;;;;;;;18.80;15.90;;;;;;;15.59;80.83;101493.16;5045178;28;20214;-69
2023/04/10 08:58:23;;;;;;;19.40;15.47;;;;;;;15.61;83.95;101512.13;5046921;28;20221;-68
2023/04/10 09:00:50;;;;;;;17.03;14.97;;;;;;;16.07;78.72;101476.34;5047279;28;20189;-71
2023/04/10 09:03:16;;;;;;;17.57;15.67;;;;;;;16.49;79.62;101468.88;5043094;28;20203;-71
2023/04/10 09:05:42;;;;;;;18.70;15.57;;;;;;;16.55;77.55;101442.22;5042945;28;20300;-71
2023/04/10 09:08:08;;;;;;;18.23;16.23;;;;;;;16.56;72.05;101407.72;5024334;28;20710;-71
2023/04/10 09:10:33;;;;;;;16.17;14.43;;;;;;;16.81;72.41;101399.22;5049069;28;20224;-68
2023/04/10 09:12:59;;;;;;;17.40;15.00;;;;;;;16.70;66.02;101355.22;5044036;28;20710;-68
2023/04/10 09:15:25;;;;;;;19.33;15.73;;;;;;;16.70;69.23;101375.91;5044907;28;20213;-68
2023/04/10 09:18:02;;;;;;;15.83;14.07;;;;;;;16.84;70.77;101401.78;5045556;28;20392;-68
2023/04/10 09:20:29;;;;;;;17.93;14.97;;;;;;;16.89;66.38;101377.66;5040376;28;20243;-68
2023/04/10 09:22:55;;;;;;;16.57;14.50;;;;;;;16.63;65.60;101391.41;5042771;28;20272;-68
2023/04/10 09:25:40;;;;;;;15.70;14.00;;;;;;;17.00;63.07;101375.13;5047396;28;20709;-68
2023/04/10 09:28:07;;;;;;;15.87;14.17;;;;;;;16.98;63.32;101384.56;5044561;28;20190;-68
2023/04/10 09:30:40;;;;;;;15.40;13.70;;;;;;;16.89;64.28;101400.06;5041842;28;20193;-68
2023/04/10 09:33:23;;;;;;;15.70;13.30;;;;;;;17.39;61.08;101373.47;5041782;28;20299;-68
2023/04/10 09:35:49;;;;;;;14.50;13.00;;;;;;;17.38;56.10;101342.34;5031419;28;20216;-68
2023/04/10 09:38:21;;;;;;;14.60;12.30;;;;;;;17.46;55.74;101341.50;5042892;28;20263;-68
2023/04/10 09:40:48;;;;;;;14.53;13.03;;;;;;;17.66;62.47;101414.03;5031785;28;20685;-68
2023/04/10 09:43:24;;;;;;;16.53;12.87;;;;;;;17.56;56.01;101365.69;5047964;28;20194;-68
2023/04/10 09:45:51;;;;;;;15.30;12.97;;;;;;;17.95;53.61;101344.88;5028412;28;20210;-68
2023/04/10 09:48:17;;;;;;;14.83;13.30;;;;;;;18.15;56.02;101371.63;5043169;28;20189;-69
2023/04/10 09:50:42;;;;;;;14.23;12.67;;;;;;;18.50;55.35;101367.19;5043186;28;20193;-69
2023/04/10 09:53:11;;;;;;;14.37;12.97;;;;;;;18.54;52.16;101349.03;5042653;28;20655;-68
2023/04/10 09:55:37;;;;;;;12.73;11.17;;;;;;;18.63;53.02;101363.69;5047570;28;20318;-68
2023/04/10 09:58:04;;;;;;;12.97;11.60;;;;;;;18.89;49.57;101360.06;5047969;28;20304;-68
2023/04/10 10:00:30;;;;;;;12.80;11.40;;;;;;;18.88;50.72;101391.25;5044868;28;20190;-69
2023/04/10 10:03:00;;;;;;;14.27;12.43;;;;;;;18.70;51.94;101417.28;5048209;28;20198;-68
2023/04/10 10:05:29;;;;;;;14.03;12.53;;;;;;;18.71;48.60;101367.09;5040835;28;20289;-68
2023/04/10 10:07:56;;;;;;;11.77;10.57;;;;;;;18.88;49.35;101379.09;5042282;28;20189;-68
2023/04/10 10:10:23;;;;;;;12.00;10.70;;;;;;;19.07;46.91;101348.72;5027827;28;20206;-68
2023/04/10 10:12:53;;;;;;;12.07;10.87;;;;;;;18.94;48.02;101381.69;5023627;28;20833;-68
2023/04/10 10:16:03;;;;;;;11.63;10.43;;;;;;;18.89;46.60;101357.47;5046378;28;20220;-68
2023/04/10 10:18:37;;;;;;;12.20;11.00;;;;;;;19.13;47.99;101400.59;4959449;28;20220;-68
2023/04/10 10:21:03;;;;;;;12.97;10.83;;;;;;;18.75;46.37;101354.09;5034359;28;20206;-68
2023/04/10 10:23:30;;;;;;;11.73;10.53;;;;;;;18.94;46.58;101376.50;5043494;28;20272;-67
2023/04/10 10:25:58;;;;;;;10.73;9.63;;;;;;;19.08;44.93;101343.53;5041562;28;20228;-68
2023/04/10 10:28:26;;;;;;;10.83;9.73;;;;;;;19.05;45.59;101381.59;5027468;28;20239;-68
2023/04/10 10:30:53;;;;;;;9.10;8.20;;;;;;;19.24;43.13;101336.47;5046366;28;20320;-68
2023/04/10 10:33:19;;;;;;;9.57;8.57;;;;;;;19.11;43.57;101343.47;5024862;28;20605;-68
2023/04/10 10:35:45;;;;;;;9.50;8.50;;;;;;;18.87;43.92;101369.59;5044255;28;20757;-68
2023/04/10 10:38:11;;;;;;;9.47;8.43;;;;;;;19.28;43.62;101353.75;5042250;28;20315;-68
2023/04/10 10:40:44;;;;;;;9.17;8.07;;;;;;;19.47;43.08;101356.22;5048269;28;20197;-68
2023/04/10 10:43:34;;;;;;;9.30;8.17;;;;;;;19.46;42.82;101408.19;5047734;28;20185;-68
2023/04/10 10:46:08;;;;;;;9.07;8.23;;;;;;;19.42;41.86;101396.97;5039725;28;20217;-68
2023/04/10 10:48:33;;;;;;;9.40;8.50;;;;;;;19.89;41.98;101405.19;5042863;28;20171;-68
2023/04/10 10:51:00;;;;;;;10.67;8.03;;;;;;;19.00;42.78;101397.22;5024688;28;20635;-68
2023/04/10 10:53:39;;;;;;;10.37;8.73;;;;;;;19.30;43.43;101415.22;5044770;28;20182;-67
2023/04/10 10:56:17;;;;;;;9.83;8.83;;;;;;;19.76;43.07;101418.34;5047731;28;20209;-68
2023/04/10 10:58:54;;;;;;;9.73;8.73;;;;;;;19.75;42.53;101380.19;5046199;28;20740;-68
2023/04/10 11:01:21;;;;;;;9.87;8.87;;;;;;;20.17;42.29;101367.66;5044038;28;20197;-68
2023/04/10 11:03:47;;;;;;;10.20;9.00;;;;;;;20.03;41.58;101350.47;5043193;28;20618;-69
2023/04/10 11:06:21;;;;;;;9.70;8.70;;;;;;;19.97;40.52;101351.38;5040005;28;20210;-69
2023/04/10 11:08:48;;;;;;;9.80;8.80;;;;;;;20.18;41.89;101398.00;5044207;28;20646;-69
2023/04/10 11:11:15;;;;;;;10.10;8.97;;;;;;;20.12;41.47;101377.25;5043045;28;20244;-69
2023/04/10 11:14:04;;;;;;;8.90;8.07;;;;;;;19.91;41.63;101374.88;5024678;28;20285;-69
2023/04/10 11:16:34;;;;;;;9.40;8.13;;;;;;;19.67;41.17;101374.22;5030748;28;20226;-69
2023/04/10 11:19:00;;;;;;;8.80;7.73;;;;;;;19.65;40.78;101365.56;5040476;28;20214;-69
2023/04/10 11:21:27;;;;;;;8.30;7.50;;;;;;;19.30;41.86;101388.41;5040547;28;20212;-69
2023/04/10 11:23:55;;;;;;;8.07;7.27;;;;;;;19.28;41.45;101426.50;5044777;28;20529;-68
2023/04/10 11:29:05;;;;;;;8.80;8.00;;;;;;;19.15;42.68;101469.81;5043130;28;20216;-68